createdAt,value
2018-03-15T00:02:14.732Z,4.83
2018-03-15T00:04:40.949Z,4.60
2018-03-15T00:07:07.138Z,4.60
2018-03-15T00:09:33.918Z,4.93
2018-03-15T00:12:00.145Z,4.40
2018-03-15T00:14:26.603Z,4.13
2018-03-15T00:16:53.036Z,6.13
2018-03-15T00:19:19.967Z,4.20
2018-03-15T00:21:46.161Z,5.07
2018-03-15T00:24:12.475Z,5.13
2018-03-15T00:26:38.643Z,4.60
2018-03-15T00:29:04.993Z,4.23
2018-03-15T00:31:31.211Z,3.83
2018-03-15T00:33:57.426Z,3.73
2018-03-15T00:36:24.795Z,4.80
2018-03-15T00:38:51.015Z,3.43
2018-03-15T00:41:17.468Z,4.30
2018-03-15T00:43:43.687Z,3.60
2018-03-15T00:46:11.212Z,4.93
2018-03-15T00:48:37.690Z,3.57
2018-03-15T00:51:04.460Z,4.43
2018-03-15T00:53:31.461Z,4.27
2018-03-15T00:55:57.676Z,3.40
2018-03-15T00:58:23.898Z,3.50
2018-03-15T01:00:50.816Z,5.07
2018-03-15T01:03:17.032Z,3.60
2018-03-15T01:05:43.438Z,3.20
2018-03-15T01:08:10.170Z,3.63
2018-03-15T01:10:37.523Z,3.50
2018-03-15T01:13:03.776Z,3.57
2018-03-15T01:15:30.590Z,3.60
2018-03-15T01:17:57.140Z,3.57
2018-03-15T01:20:23.360Z,6.53
2018-03-15T01:22:50.134Z,3.73
2018-03-15T01:25:16.555Z,4.13
2018-03-15T01:27:42.972Z,3.70
2018-03-15T01:30:09.407Z,4.10
2018-03-15T01:32:36.372Z,6.27
2018-03-15T01:35:02.592Z,6.87
2018-03-15T01:37:29.013Z,6.67
2018-03-15T01:39:56.029Z,9.60
2018-03-15T01:42:22.242Z,8.90
2018-03-15T01:44:48.507Z,9.97
2018-03-15T01:47:14.949Z,10.97
2018-03-15T01:49:41.486Z,12.77
2018-03-15T01:52:07.707Z,8.93
2018-03-15T01:54:34.253Z,8.70
2018-03-15T01:57:00.509Z,9.03
2018-03-15T01:59:26.718Z,8.83
2018-03-15T02:01:54.328Z,8.17
2018-03-15T02:04:20.550Z,8.00
2018-03-15T02:06:47.386Z,9.07
2018-03-15T02:09:13.666Z,9.87
2018-03-15T02:11:39.881Z,8.00
2018-03-15T02:14:06.336Z,9.07
2018-03-15T02:16:32.868Z,9.20
2018-03-15T02:18:59.296Z,10.23
2018-03-15T02:21:25.536Z,8.40
2018-03-15T02:23:51.963Z,9.33
2018-03-15T02:26:18.879Z,8.93
2018-03-15T02:28:45.080Z,8.80
2018-03-15T02:31:11.459Z,8.57
2018-03-15T02:33:37.897Z,7.17
2018-03-15T02:36:04.329Z,8.60
2018-03-15T02:38:30.763Z,8.40
2018-03-15T02:40:57.195Z,7.90
2018-03-15T02:43:23.629Z,7.90
2018-03-15T02:45:50.027Z,8.37
2018-03-15T02:48:16.506Z,9.53
2018-03-15T02:50:42.932Z,9.73
2018-03-15T02:53:09.868Z,7.83
2018-03-15T02:55:36.305Z,9.40
2018-03-15T02:58:02.607Z,8.70
2018-03-15T03:00:29.073Z,8.37
2018-03-15T03:02:55.261Z,10.93
2018-03-15T03:05:22.252Z,13.27
2018-03-15T03:07:48.680Z,14.37
2018-03-15T03:10:16.128Z,12.57
2018-03-15T03:12:42.341Z,9.10
2018-03-15T03:15:09.174Z,8.23
2018-03-15T03:17:35.509Z,7.63
2018-03-15T03:20:02.074Z,7.57
2018-03-15T03:22:28.270Z,7.03
2018-03-15T03:24:54.735Z,7.83
2018-03-15T03:27:21.683Z,9.57
2018-03-15T03:29:48.113Z,8.00
2018-03-15T03:32:14.651Z,11.47
2018-03-15T03:34:41.583Z,13.10
2018-03-15T03:37:08.129Z,10.43
2018-03-15T03:39:34.563Z,11.67
2018-03-15T03:42:00.895Z,10.40
2018-03-15T03:44:27.216Z,7.80
2018-03-15T03:46:54.045Z,7.87
2018-03-15T03:49:20.499Z,9.43
2018-03-15T03:51:47.486Z,9.00
2018-03-15T03:54:14.261Z,9.93
2018-03-15T03:56:41.282Z,9.20
2018-03-15T03:59:08.362Z,12.03
2018-03-15T04:01:35.803Z,10.37
2018-03-15T04:04:02.041Z,12.47
2018-03-15T04:06:28.274Z,11.43
2018-03-15T04:08:55.215Z,10.17
2018-03-15T04:11:21.681Z,9.50
2018-03-15T04:13:48.106Z,10.53
2018-03-15T04:16:14.645Z,13.87
2018-03-15T04:18:42.043Z,10.13
2018-03-15T04:21:08.321Z,11.20
2018-03-15T04:23:35.242Z,10.10
2018-03-15T04:26:01.458Z,12.37
2018-03-15T04:28:27.936Z,14.30
2018-03-15T04:30:54.213Z,11.67
2018-03-15T04:33:20.697Z,10.97
2018-03-15T04:35:48.228Z,8.93
2018-03-15T04:38:14.689Z,10.03
2018-03-15T04:40:40.894Z,10.50
2018-03-15T04:43:07.184Z,12.60
2018-03-15T04:45:33.687Z,12.17
2018-03-15T04:48:00.118Z,12.50
2018-03-15T04:50:26.330Z,10.23
2018-03-15T04:52:52.880Z,10.67
2018-03-15T04:55:19.092Z,10.47
2018-03-15T04:57:45.810Z,11.20
2018-03-15T05:00:12.383Z,9.83
2018-03-15T05:02:38.595Z,10.77
2018-03-15T05:05:04.866Z,10.00
2018-03-15T05:07:32.086Z,12.53
2018-03-15T05:09:59.003Z,11.50
2018-03-15T05:12:25.229Z,10.03
2018-03-15T05:14:51.461Z,11.13
2018-03-15T05:17:18.032Z,10.67
2018-03-15T05:19:44.356Z,8.47
2018-03-15T05:22:10.594Z,11.77
2018-03-15T05:24:37.022Z,10.67
2018-03-15T05:27:03.219Z,9.67
2018-03-15T05:29:29.684Z,9.90
2018-03-15T05:31:55.865Z,11.77
2018-03-15T05:34:22.342Z,11.80
2018-03-15T05:36:49.023Z,11.77
2018-03-15T05:39:15.264Z,11.47
2018-03-15T05:41:41.747Z,10.53
2018-03-15T05:44:07.939Z,10.63
2018-03-15T05:46:34.409Z,13.87
2018-03-15T05:49:00.599Z,11.03
2018-03-15T05:51:27.593Z,13.07
2018-03-15T05:53:54.015Z,11.37
2018-03-15T05:56:20.241Z,11.03
2018-03-15T05:58:46.420Z,9.67
2018-03-15T06:01:12.707Z,12.00
2018-03-15T06:03:39.030Z,11.80
2018-03-15T06:06:05.773Z,11.23
2018-03-15T06:08:31.989Z,17.13
2018-03-15T06:10:58.180Z,11.20
2018-03-15T06:13:24.412Z,13.60
2018-03-15T06:15:50.787Z,12.40
2018-03-15T06:18:17.220Z,13.60
2018-03-15T06:20:43.748Z,11.87
2018-03-15T06:23:09.940Z,29.33
2018-03-15T06:25:36.118Z,47.53
2018-03-15T06:28:02.312Z,25.50
2018-03-15T06:30:28.554Z,20.77
2018-03-15T06:32:54.757Z,17.53
2018-03-15T06:35:21.127Z,17.97
2018-03-15T06:37:47.299Z,19.03
2018-03-15T06:40:13.789Z,11.23
2018-03-15T06:42:39.970Z,12.50
2018-03-15T06:45:07.094Z,13.00
2018-03-15T06:47:33.506Z,15.80
2018-03-15T06:49:59.693Z,15.07
2018-03-15T06:52:25.875Z,14.63
2018-03-15T06:54:52.285Z,14.07
2018-03-15T06:57:18.718Z,14.37
2018-03-15T06:59:45.151Z,15.00
2018-03-15T07:02:11.584Z,19.17
2018-03-15T07:04:38.015Z,12.90
2018-03-15T07:07:05.140Z,13.03
2018-03-15T07:09:31.312Z,14.73
2018-03-15T07:11:57.488Z,12.93
2018-03-15T07:14:23.679Z,14.13
2018-03-15T07:16:50.078Z,13.67
2018-03-15T07:19:16.258Z,13.10
2018-03-15T07:21:42.431Z,16.03
2018-03-15T07:24:08.617Z,14.70
2018-03-15T07:26:34.827Z,14.20
2018-03-15T07:29:01.009Z,13.40
2018-03-15T07:31:27.186Z,15.03
2018-03-15T07:33:54.104Z,15.37
2018-03-15T07:36:20.521Z,16.60
2018-03-15T07:38:46.715Z,12.73
2018-03-15T07:41:13.180Z,18.47
2018-03-15T07:43:39.995Z,17.23
2018-03-15T07:46:06.180Z,19.73
2018-03-15T07:48:32.409Z,18.77
2018-03-15T07:50:58.811Z,13.77
2018-03-15T07:53:25.244Z,20.43
2018-03-15T07:55:51.687Z,23.53
2018-03-15T07:58:18.059Z,18.10
2018-03-15T08:00:44.245Z,16.20
2018-03-15T08:03:10.428Z,11.07
2018-03-15T08:05:36.899Z,7.03
2018-03-15T08:08:03.383Z,3.87
2018-03-15T08:10:30.072Z,7.50
2018-03-15T08:12:57.047Z,3.00
2018-03-15T08:15:23.599Z,4.47
2018-03-15T08:17:49.782Z,5.17
2018-03-15T08:20:16.112Z,4.83
2018-03-15T08:22:42.853Z,11.10
2018-03-15T08:25:09.336Z,5.57
2018-03-15T08:27:36.840Z,9.50
2018-03-15T08:30:03.134Z,3.50
2018-03-15T08:32:29.298Z,5.03
2018-03-15T08:34:55.735Z,8.90
2018-03-15T08:37:22.173Z,6.23
2018-03-15T08:39:48.443Z,4.77
2018-03-15T08:42:14.832Z,10.80
2018-03-15T08:44:42.076Z,8.60
2018-03-15T08:47:08.266Z,5.97
2018-03-15T08:49:34.642Z,6.07
2018-03-15T08:52:01.494Z,8.70
2018-03-15T08:54:27.918Z,5.40
2018-03-15T08:56:54.374Z,7.97
2018-03-15T08:59:20.782Z,5.87
2018-03-15T09:01:47.216Z,4.83
2018-03-15T09:04:13.771Z,4.53
2018-03-15T09:06:39.961Z,5.57
2018-03-15T09:09:06.415Z,6.70
2018-03-15T09:11:32.648Z,4.73
2018-03-15T09:13:59.178Z,9.53
2018-03-15T09:16:25.354Z,5.43
2018-03-15T09:18:51.559Z,5.83
2018-03-15T09:21:17.967Z,5.40
2018-03-15T09:23:44.710Z,6.13
2018-03-15T09:26:11.139Z,5.07
2018-03-15T09:28:38.045Z,6.53
2018-03-15T09:31:04.246Z,14.83
